createdAt,value
2022-08-19T00:01:26.383Z,101130.41
2022-08-19T00:04:02.867Z,101138.64
2022-08-19T00:06:31.005Z,101136.98
2022-08-19T00:08:59.118Z,101135.70
2022-08-19T00:11:28.041Z,101150.58
2022-08-19T00:13:56.508Z,101152.24
2022-08-19T00:16:26.238Z,101153.88
2022-08-19T00:18:57.630Z,101154.70
2022-08-19T00:21:28.722Z,101151.43
2022-08-19T00:23:56.911Z,101147.70
2022-08-19T00:26:24.647Z,101136.95
2022-08-19T00:28:54.897Z,101135.27
2022-08-19T00:31:22.859Z,101140.64
2022-08-19T00:33:56.019Z,101141.03
2022-08-19T00:36:23.828Z,101146.82
2022-08-19T00:38:56.761Z,101146.82
2022-08-19T00:41:27.732Z,101148.48
2022-08-19T00:44:22.638Z,101150.52
2022-08-19T00:46:55.420Z,101147.21
2022-08-19T00:49:58.451Z,101153.03
2022-08-19T00:52:37.593Z,101141.03
2022-08-19T00:55:08.571Z,101147.24
2022-08-19T00:57:37.962Z,101148.91
2022-08-19T01:00:11.797Z,101144.73
2022-08-19T01:02:45.361Z,101146.85
2022-08-19T01:05:22.895Z,101147.63
2022-08-19T01:07:53.357Z,101143.52
2022-08-19T01:10:22.897Z,101149.66
2022-08-19T01:12:53.439Z,101141.78
2022-08-19T01:15:25.610Z,101140.12
2022-08-19T01:17:53.397Z,101134.33
2022-08-19T01:20:22.909Z,101134.69
2022-08-19T01:22:55.793Z,101132.63
2022-08-19T01:25:30.654Z,101122.33
2022-08-19T01:28:09.267Z,101124.39
2022-08-19T01:30:39.023Z,101127.73
2022-08-19T01:33:14.199Z,101123.60
2022-08-19T01:35:42.278Z,101123.60
2022-08-19T01:38:12.498Z,101128.15
2022-08-19T01:40:45.276Z,101122.79
2022-08-19T01:43:21.141Z,101121.94
2022-08-19T01:45:51.115Z,101131.45
2022-08-19T01:48:24.856Z,101131.45
2022-08-19T01:50:52.599Z,101131.45
2022-08-19T01:53:22.725Z,101131.02
2022-08-19T01:55:54.485Z,101128.61
2022-08-19T01:58:25.203Z,101128.61
2022-08-19T02:00:55.909Z,101110.79
2022-08-19T02:03:26.100Z,101102.94
2022-08-19T02:06:04.882Z,101099.21
2022-08-19T02:08:36.861Z,101102.13
2022-08-19T02:11:07.488Z,101105.82
2022-08-19T02:13:38.950Z,101100.03
2022-08-19T02:16:06.919Z,101100.45
2022-08-19T02:18:39.610Z,101101.27
2022-08-19T02:21:08.281Z,101095.91
2022-08-19T02:23:36.076Z,101097.58
2022-08-19T02:26:03.824Z,101102.94
2022-08-19T02:28:31.562Z,101114.91
2022-08-19T02:30:59.345Z,101110.40
2022-08-19T02:33:29.623Z,101111.57
2022-08-19T02:35:57.369Z,101114.91
2022-08-19T02:38:31.026Z,101113.27
2022-08-19T02:41:09.533Z,101108.70
2022-08-19T02:43:44.464Z,101117.36
2022-08-19T02:46:30.012Z,101117.39
2022-08-19T02:49:04.907Z,101116.18
2022-08-19T02:51:37.800Z,101114.52
2022-08-19T02:54:11.406Z,101117.03
2022-08-19T02:56:39.966Z,101118.66
2022-08-19T02:59:12.119Z,101118.66
2022-08-19T03:01:42.606Z,101112.52
2022-08-19T03:04:13.099Z,101116.21
2022-08-19T03:06:42.790Z,101109.19
2022-08-19T03:09:13.609Z,101112.52
2022-08-19T03:11:41.424Z,101105.52
2022-08-19T03:14:10.026Z,101112.13
2022-08-19T03:16:45.738Z,101105.52
2022-08-19T03:19:13.603Z,101105.52
2022-08-19T03:21:43.950Z,101108.83
2022-08-19T03:24:11.788Z,101113.77
2022-08-19T03:26:43.899Z,101113.77
2022-08-19T03:29:13.344Z,101111.70
2022-08-19T03:31:52.309Z,101117.46
2022-08-19T03:34:28.559Z,101120.30
2022-08-19T03:36:59.790Z,101113.27
2022-08-19T03:39:30.568Z,101114.91
2022-08-19T03:42:32.362Z,101123.18
2022-08-19T03:44:51.131Z,101121.15
2022-08-19T03:47:21.908Z,101125.27
2022-08-19T03:49:52.256Z,101119.13
2022-08-19T03:52:24.714Z,101110.43
2022-08-19T03:54:54.801Z,101103.82
2022-08-19T03:57:25.164Z,101100.52
2022-08-19T04:00:12.797Z,101101.80
2022-08-19T04:02:58.651Z,101091.46
2022-08-19T04:05:31.388Z,101080.74
2022-08-19T04:08:00.941Z,101086.52
2022-08-19T04:10:31.232Z,101087.34
2022-08-19T04:13:01.505Z,101084.04
2022-08-19T04:15:30.934Z,101077.83
2022-08-19T04:18:00.930Z,101079.10
2022-08-19T04:20:32.153Z,101075.80
2022-08-19T04:23:05.440Z,101070.51
2022-08-19T04:25:44.313Z,101072.60
2022-08-19T04:28:13.272Z,101075.51
2022-08-19T04:30:46.234Z,101075.09
2022-08-19T04:33:14.432Z,101081.69
2022-08-19T04:35:45.933Z,101095.75
2022-08-19T04:38:13.796Z,101100.75
2022-08-19T04:41:07.181Z,101103.23
2022-08-19T04:43:35.602Z,101108.23
2022-08-19T04:46:10.907Z,101110.79
2022-08-19T04:48:49.203Z,101115.73
2022-08-19T04:51:22.735Z,101115.73
2022-08-19T04:53:50.856Z,101114.48
2022-08-19T04:56:19.347Z,101114.91
2022-08-19T04:58:47.557Z,101131.87
2022-08-19T05:01:25.864Z,101127.30
2022-08-19T05:04:02.426Z,101132.27
2022-08-19T05:06:30.990Z,101137.66
2022-08-19T05:09:07.740Z,101137.24
2022-08-19T05:11:38.506Z,101142.63
2022-08-19T05:14:08.657Z,101144.30
2022-08-19T05:16:36.693Z,101145.58
2022-08-19T05:19:27.909Z,101147.24
2022-08-19T05:22:14.455Z,101152.61
2022-08-19T05:25:09.228Z,101153.81
2022-08-19T05:27:34.952Z,101159.21
2022-08-19T05:30:03.604Z,101168.27
2022-08-19T05:32:34.497Z,101174.02
2022-08-19T05:35:02.338Z,101179.81
2022-08-19T05:37:30.285Z,101181.87
2022-08-19T05:40:00.524Z,101190.92
2022-08-19T05:42:28.554Z,101185.14
2022-08-19T05:44:58.751Z,101177.29
2022-08-19T05:47:29.584Z,101165.33
2022-08-19T05:49:57.408Z,101176.48
2022-08-19T05:52:29.227Z,101175.27
2022-08-19T05:55:00.976Z,101176.12
2022-08-19T05:57:30.840Z,101164.90
2022-08-19T06:00:02.227Z,101166.60
2022-08-19T06:02:35.341Z,101158.72
2022-08-19T06:05:04.562Z,101161.95
2022-08-19T06:07:32.404Z,101157.02
2022-08-19T06:10:01.340Z,101148.35
2022-08-19T06:12:36.369Z,101152.51
2022-08-19T06:15:09.961Z,101150.05
2022-08-19T06:17:40.804Z,101151.33
2022-08-19T06:20:15.278Z,101159.99
2022-08-19T06:22:51.824Z,101159.99
2022-08-19T06:25:19.563Z,101165.78
2022-08-19T06:28:13.578Z,101164.12
2022-08-19T06:30:38.414Z,101165.39
2022-08-19T06:33:09.174Z,101166.63
2022-08-19T06:35:53.380Z,101166.63
2022-08-19T06:38:25.635Z,101170.72
2022-08-19T06:40:53.433Z,101165.36
2022-08-19T06:43:21.208Z,101159.11
2022-08-19T06:45:56.025Z,101168.23
2022-08-19T06:48:24.605Z,101159.54
2022-08-19T06:50:56.725Z,101159.93
2022-08-19T06:53:24.504Z,101163.69
2022-08-19T06:56:01.931Z,101159.57
2022-08-19T06:58:35.607Z,101164.12
2022-08-19T07:01:09.298Z,101161.20
2022-08-19T07:03:42.085Z,101166.17
2022-08-19T07:06:39.422Z,101166.21
2022-08-19T07:09:13.656Z,101169.09
2022-08-19T07:11:54.594Z,101175.27
2022-08-19T07:14:27.543Z,101172.78
2022-08-19T07:16:57.107Z,101181.09
2022-08-19T07:19:33.686Z,101176.48
2022-08-19T07:22:04.159Z,101183.96
2022-08-19T07:24:37.557Z,101189.75
2022-08-19T07:27:15.063Z,101194.30
2022-08-19T07:29:49.050Z,101200.90
2022-08-19T07:32:24.543Z,101194.69
2022-08-19T07:34:58.701Z,101203.77
2022-08-19T07:37:33.589Z,101195.93
2022-08-19T07:40:06.416Z,101199.69
2022-08-19T21:17:38.006Z,101636.28
2022-08-19T21:20:10.548Z,101630.49
2022-08-19T21:22:40.668Z,101628.50
2022-08-19T21:25:10.339Z,101630.56
2022-08-19T21:27:39.398Z,101633.89
2022-08-19T21:30:11.147Z,101642.20
2022-08-19T21:32:40.574Z,101637.66
2022-08-19T21:35:10.355Z,101637.66
2022-08-19T21:37:41.264Z,101635.95
2022-08-19T21:40:11.418Z,101640.59
2022-08-19T21:42:47.176Z,101635.17
2022-08-19T21:45:15.866Z,101645.99
2022-08-19T21:47:45.545Z,101635.95
2022-08-19T21:50:14.088Z,101648.45
2022-08-19T21:52:44.111Z,101648.45
2022-08-19T21:55:16.160Z,101647.59
2022-08-19T21:57:44.858Z,101648.45
2022-08-19T22:00:19.867Z,101647.98
2022-08-19T22:02:48.953Z,101646.32
2022-08-19T22:05:18.738Z,101651.78
2022-08-19T22:07:48.559Z,101655.90
2022-08-19T22:10:18.776Z,101662.14
2022-08-19T22:12:51.756Z,101662.14
2022-08-19T22:15:22.724Z,101653.84
2022-08-19T22:17:53.853Z,101661.69
2022-08-19T22:20:24.853Z,101654.59
2022-08-19T22:23:00.850Z,101657.11
2022-08-19T22:25:32.247Z,101657.11
2022-08-19T22:28:05.451Z,101663.35
2022-08-19T22:30:36.169Z,101663.74
2022-08-19T22:33:08.025Z,101672.41
2022-08-19T22:35:39.055Z,101661.69
2022-08-19T22:38:08.803Z,101672.41
2022-08-19T22:40:38.476Z,101668.68
2022-08-19T22:43:28.234Z,101667.48
2022-08-19T22:46:17.685Z,101666.69
2022-08-19T22:48:46.417Z,101654.66
2022-08-19T22:51:37.701Z,101659.63
2022-08-19T22:54:06.268Z,101660.02
2022-08-19T22:56:36.080Z,101665.35
2022-08-19T22:59:05.992Z,101661.98
2022-08-19T23:01:37.240Z,101660.31
2022-08-19T23:04:09.469Z,101653.31
2022-08-19T23:06:41.856Z,101656.59
2022-08-19T23:09:16.870Z,101651.65
2022-08-19T23:11:46.477Z,101661.62
2022-08-19T23:14:17.659Z,101661.62
2022-08-19T23:16:54.117Z,101659.92
2022-08-19T23:19:26.074Z,101668.23
2022-08-19T23:22:02.550Z,101657.50
2022-08-19T23:24:32.833Z,101646.68
2022-08-19T23:27:21.217Z,101655.38
2022-08-19T23:30:11.780Z,101656.20
2022-08-19T23:32:42.056Z,101651.65
2022-08-19T23:35:11.278Z,101649.59
2022-08-19T23:37:40.289Z,101659.10
2022-08-19T23:40:10.427Z,101656.20
2022-08-19T23:42:42.772Z,101654.07
2022-08-19T23:45:12.328Z,101649.98
2022-08-19T23:47:43.761Z,101655.77
2022-08-19T23:50:15.078Z,101645.41
2022-08-19T23:52:57.170Z,101649.98
2022-08-19T23:55:31.736Z,101656.20
2022-08-19T23:58:00.965Z,101653.71
